sensor_id;sensor_type;location;lat;lon;timestamp;P1;durP1;ratioP1;P2;durP2;ratioP2
5821;SDS011;2937;48.562;8.022;2023-05-10T00:00:49;4.63;;;3.10;;
5821;SDS011;2937;48.562;8.022;2023-05-10T00:05:44;6.37;;;3.20;;
5821;SDS011;2937;48.562;8.022;2023-05-10T00:10:37;5.47;;;4.00;;
5821;SDS011;2937;48.562;8.022;2023-05-10T00:15:29;4.80;;;3.73;;
5821;SDS011;2937;48.562;8.022;2023-05-10T00:20:22;4.80;;;4.30;;
5821;SDS011;2937;48.562;8.022;2023-05-10T00:25:16;5.20;;;3.80;;
5821;SDS011;2937;48.562;8.022;2023-05-10T00:30:09;5.50;;;4.07;;
5821;SDS011;2937;48.562;8.022;2023-05-10T00:35:02;4.60;;;3.90;;
5821;SDS011;2937;48.562;8.022;2023-05-10T00:39:55;4.53;;;3.57;;
5821;SDS011;2937;48.562;8.022;2023-05-10T00:44:49;4.63;;;3.37;;
5821;SDS011;2937;48.562;8.022;2023-05-10T00:49:42;4.43;;;3.33;;
5821;SDS011;2937;48.562;8.022;2023-05-10T00:54:35;3.37;;;2.80;;
5821;SDS011;2937;48.562;8.022;2023-05-10T00:59:28;5.90;;;3.10;;
5821;SDS011;2937;48.562;8.022;2023-05-10T01:04:22;8.60;;;3.03;;
5821;SDS011;2937;48.562;8.022;2023-05-10T01:09:17;5.80;;;3.30;;
5821;SDS011;2937;48.562;8.022;2023-05-10T01:14:10;5.60;;;3.40;;
5821;SDS011;2937;48.562;8.022;2023-05-10T01:19:04;5.17;;;3.97;;
5821;SDS011;2937;48.562;8.022;2023-05-10T01:24:07;3.97;;;3.63;;
5821;SDS011;2937;48.562;8.022;2023-05-10T01:34:11;4.03;;;3.63;;
5821;SDS011;2937;48.562;8.022;2023-05-10T01:39:07;4.80;;;3.40;;
5821;SDS011;2937;48.562;8.022;2023-05-10T01:44:06;4.50;;;4.10;;
5821;SDS011;2937;48.562;8.022;2023-05-10T01:49:03;3.67;;;3.37;;
5821;SDS011;2937;48.562;8.022;2023-05-10T01:54:01;4.17;;;3.30;;
5821;SDS011;2937;48.562;8.022;2023-05-10T01:58:54;3.77;;;2.90;;
5821;SDS011;2937;48.562;8.022;2023-05-10T02:03:48;3.60;;;3.30;;
5821;SDS011;2937;48.562;8.022;2023-05-10T02:08:42;9.10;;;3.50;;
5821;SDS011;2937;48.562;8.022;2023-05-10T02:13:36;4.20;;;3.80;;
5821;SDS011;2937;48.562;8.022;2023-05-10T02:18:30;3.73;;;3.30;;
5821;SDS011;2937;48.562;8.022;2023-05-10T02:23:24;4.30;;;3.90;;
5821;SDS011;2937;48.562;8.022;2023-05-10T02:28:17;4.37;;;3.70;;
5821;SDS011;2937;48.562;8.022;2023-05-10T02:33:12;7.90;;;3.77;;
5821;SDS011;2937;48.562;8.022;2023-05-10T02:38:04;7.17;;;3.70;;
5821;SDS011;2937;48.562;8.022;2023-05-10T02:42:59;3.80;;;3.47;;
5821;SDS011;2937;48.562;8.022;2023-05-10T02:47:55;4.00;;;3.40;;
5821;SDS011;2937;48.562;8.022;2023-05-10T02:52:50;5.80;;;3.83;;
5821;SDS011;2937;48.562;8.022;2023-05-10T02:57:46;5.23;;;4.10;;
5821;SDS011;2937;48.562;8.022;2023-05-10T03:02:40;5.27;;;4.20;;
5821;SDS011;2937;48.562;8.022;2023-05-10T03:07:33;5.37;;;4.37;;
5821;SDS011;2937;48.562;8.022;2023-05-10T03:12:31;6.43;;;5.10;;
5821;SDS011;2937;48.562;8.022;2023-05-10T03:17:29;6.60;;;4.83;;
5821;SDS011;2937;48.562;8.022;2023-05-10T03:22:24;5.93;;;4.43;;
5821;SDS011;2937;48.562;8.022;2023-05-10T03:27:18;7.73;;;4.77;;
5821;SDS011;2937;48.562;8.022;2023-05-10T03:32:12;5.97;;;5.00;;
5821;SDS011;2937;48.562;8.022;2023-05-10T03:37:05;6.70;;;5.13;;
5821;SDS011;2937;48.562;8.022;2023-05-10T03:41:59;6.20;;;5.00;;
5821;SDS011;2937;48.562;8.022;2023-05-10T03:46:51;5.97;;;4.80;;
5821;SDS011;2937;48.562;8.022;2023-05-10T03:51:46;6.17;;;4.80;;
5821;SDS011;2937;48.562;8.022;2023-05-10T03:56:40;8.30;;;4.93;;
5821;SDS011;2937;48.562;8.022;2023-05-10T04:01:33;5.50;;;5.00;;
5821;SDS011;2937;48.562;8.022;2023-05-10T04:06:26;5.60;;;4.60;;
5821;SDS011;2937;48.562;8.022;2023-05-10T04:11:21;5.83;;;4.30;;
5821;SDS011;2937;48.562;8.022;2023-05-10T04:16:14;7.20;;;4.73;;
5821;SDS011;2937;48.562;8.022;2023-05-10T04:21:10;9.00;;;5.27;;
5821;SDS011;2937;48.562;8.022;2023-05-10T04:26:03;6.23;;;4.80;;
5821;SDS011;2937;48.562;8.022;2023-05-10T04:31:01;6.73;;;4.50;;
5821;SDS011;2937;48.562;8.022;2023-05-10T04:35:54;4.60;;;3.93;;
5821;SDS011;2937;48.562;8.022;2023-05-10T04:40:47;6.23;;;4.10;;
5821;SDS011;2937;48.562;8.022;2023-05-10T04:45:40;5.37;;;4.10;;
5821;SDS011;2937;48.562;8.022;2023-05-10T04:50:34;4.07;;;3.67;;
5821;SDS011;2937;48.562;8.022;2023-05-10T04:55:27;6.23;;;4.13;;
5821;SDS011;2937;48.562;8.022;2023-05-10T05:00:19;5.53;;;3.60;;
5821;SDS011;2937;48.562;8.022;2023-05-10T05:05:12;6.13;;;4.20;;
5821;SDS011;2937;48.562;8.022;2023-05-10T05:10:07;7.03;;;4.30;;
5821;SDS011;2937;48.562;8.022;2023-05-10T05:15:00;6.23;;;5.57;;
5821;SDS011;2937;48.562;8.022;2023-05-10T05:19:53;8.10;;;5.70;;
5821;SDS011;2937;48.562;8.022;2023-05-10T05:24:46;8.50;;;6.50;;
5821;SDS011;2937;48.562;8.022;2023-05-10T05:29:40;6.50;;;5.50;;
5821;SDS011;2937;48.562;8.022;2023-05-10T05:34:33;6.20;;;4.67;;
5821;SDS011;2937;48.562;8.022;2023-05-10T05:39:26;5.50;;;4.87;;
5821;SDS011;2937;48.562;8.022;2023-05-10T05:44:18;5.60;;;5.00;;
5821;SDS011;2937;48.562;8.022;2023-05-10T05:49:12;8.90;;;4.93;;
5821;SDS011;2937;48.562;8.022;2023-05-10T05:54:05;8.37;;;4.97;;
5821;SDS011;2937;48.562;8.022;2023-05-10T05:58:58;6.93;;;5.10;;
5821;SDS011;2937;48.562;8.022;2023-05-10T06:03:50;5.47;;;4.97;;
5821;SDS011;2937;48.562;8.022;2023-05-10T06:08:45;5.93;;;5.03;;
5821;SDS011;2937;48.562;8.022;2023-05-10T06:13:38;7.60;;;4.80;;
5821;SDS011;2937;48.562;8.022;2023-05-10T06:18:31;5.63;;;5.03;;
5821;SDS011;2937;48.562;8.022;2023-05-10T06:23:23;5.37;;;4.80;;
5821;SDS011;2937;48.562;8.022;2023-05-10T06:28:18;5.90;;;4.93;;
5821;SDS011;2937;48.562;8.022;2023-05-10T06:33:10;6.17;;;5.57;;
5821;SDS011;2937;48.562;8.022;2023-05-10T06:38:03;6.23;;;5.70;;
5821;SDS011;2937;48.562;8.022;2023-05-10T06:42:56;6.10;;;4.50;;
5821;SDS011;2937;48.562;8.022;2023-05-10T06:47:50;6.07;;;4.80;;
5821;SDS011;2937;48.562;8.022;2023-05-10T06:52:42;5.07;;;4.63;;
5821;SDS011;2937;48.562;8.022;2023-05-10T06:57:35;4.57;;;4.17;;
5821;SDS011;2937;48.562;8.022;2023-05-10T07:02:28;4.77;;;3.20;;
5821;SDS011;2937;48.562;8.022;2023-05-10T07:07:22;2.90;;;2.63;;
5821;SDS011;2937;48.562;8.022;2023-05-10T07:12:15;2.60;;;2.40;;
5821;SDS011;2937;48.562;8.022;2023-05-10T07:17:07;4.20;;;2.67;;
5821;SDS011;2937;48.562;8.022;2023-05-10T07:22:00;5.07;;;3.00;;
5821;SDS011;2937;48.562;8.022;2023-05-10T07:26:54;3.80;;;3.00;;
5821;SDS011;2937;48.562;8.022;2023-05-10T07:31:47;4.23;;;3.83;;
5821;SDS011;2937;48.562;8.022;2023-05-10T07:36:40;3.60;;;3.30;;
5821;SDS011;2937;48.562;8.022;2023-05-10T07:41:33;3.50;;;3.17;;
5821;SDS011;2937;48.562;8.022;2023-05-10T07:46:28;4.17;;;2.67;;
5821;SDS011;2937;48.562;8.022;2023-05-10T07:51:21;2.17;;;1.90;;
5821;SDS011;2937;48.562;8.022;2023-05-10T07:56:20;3.73;;;2.27;;
5821;SDS011;2937;48.562;8.022;2023-05-10T08:01:13;2.50;;;2.30;;
5821;SDS011;2937;48.562;8.022;2023-05-10T08:06:07;3.63;;;2.63;;
5821;SDS011;2937;48.562;8.022;2023-05-10T08:11:00;3.57;;;2.50;;
5821;SDS011;2937;48.562;8.022;2023-05-10T08:15:53;4.20;;;2.33;;
5821;SDS011;2937;48.562;8.022;2023-05-10T08:20:46;4.37;;;2.10;;
5821;SDS011;2937;48.562;8.022;2023-05-10T08:25:40;4.60;;;2.20;;
5821;SDS011;2937;48.562;8.022;2023-05-10T08:30:33;3.73;;;2.47;;
5821;SDS011;2937;48.562;8.022;2023-05-10T08:35:25;1.90;;;1.70;;
5821;SDS011;2937;48.562;8.022;2023-05-10T08:40:19;1.90;;;1.70;;
5821;SDS011;2937;48.562;8.022;2023-05-10T08:45:13;2.97;;;1.70;;
5821;SDS011;2937;48.562;8.022;2023-05-10T08:50:08;2.10;;;1.50;;
5821;SDS011;2937;48.562;8.022;2023-05-10T08:55:01;3.27;;;1.60;;
5821;SDS011;2937;48.562;8.022;2023-05-10T08:59:53;1.60;;;1.50;;
5821;SDS011;2937;48.562;8.022;2023-05-10T09:04:47;2.07;;;1.80;;
5821;SDS011;2937;48.562;8.022;2023-05-10T09:09:41;2.63;;;1.80;;
5821;SDS011;2937;48.562;8.022;2023-05-10T09:14:34;3.30;;;2.13;;
5821;SDS011;2937;48.562;8.022;2023-05-10T09:19:27;2.20;;;2.00;;
5821;SDS011;2937;48.562;8.022;2023-05-10T09:24:21;2.00;;;1.77;;
5821;SDS011;2937;48.562;8.022;2023-05-10T09:29:17;3.00;;;2.20;;
5821;SDS011;2937;48.562;8.022;2023-05-10T09:34:10;4.67;;;3.27;;
5821;SDS011;2937;48.562;8.022;2023-05-10T09:39:02;5.20;;;2.70;;
5821;SDS011;2937;48.562;8.022;2023-05-10T09:43:57;5.40;;;1.80;;
5821;SDS011;2937;48.562;8.022;2023-05-10T09:48:50;2.70;;;1.50;;
5821;SDS011;2937;48.562;8.022;2023-05-10T09:53:42;2.00;;;1.80;;
5821;SDS011;2937;48.562;8.022;2023-05-10T09:58:36;2.27;;;1.97;;
5821;SDS011;2937;48.562;8.022;2023-05-10T10:03:30;1.60;;;1.50;;
5821;SDS011;2937;48.562;8.022;2023-05-10T10:08:23;3.53;;;2.00;;
5821;SDS011;2937;48.562;8.022;2023-05-10T10:13:16;3.50;;;1.60;;
5821;SDS011;2937;48.562;8.022;2023-05-10T10:18:11;3.30;;;1.57;;
5821;SDS011;2937;48.562;8.022;2023-05-10T10:23:06;2.70;;;1.40;;
5821;SDS011;2937;48.562;8.022;2023-05-10T10:28:04;2.03;;;1.50;;
5821;SDS011;2937;48.562;8.022;2023-05-10T10:33:03;1.50;;;1.40;;
5821;SDS011;2937;48.562;8.022;2023-05-10T10:38:19;3.00;;;1.53;;
5821;SDS011;2937;48.562;8.022;2023-05-10T10:43:22;3.10;;;1.63;;
5821;SDS011;2937;48.562;8.022;2023-05-10T10:48:20;2.17;;;1.70;;
5821;SDS011;2937;48.562;8.022;2023-05-10T10:53:12;1.67;;;1.50;;
5821;SDS011;2937;48.562;8.022;2023-05-10T10:58:06;2.40;;;1.57;;
5821;SDS011;2937;48.562;8.022;2023-05-10T11:03:03;2.40;;;1.90;;
5821;SDS011;2937;48.562;8.022;2023-05-10T11:07:58;2.70;;;1.93;;
5821;SDS011;2937;48.562;8.022;2023-05-10T11:12:52;1.83;;;1.50;;
5821;SDS011;2937;48.562;8.022;2023-05-10T11:17:46;1.80;;;1.20;;
5821;SDS011;2937;48.562;8.022;2023-05-10T11:22:49;1.33;;;1.23;;
5821;SDS011;2937;48.562;8.022;2023-05-10T11:27:43;2.10;;;1.33;;
5821;SDS011;2937;48.562;8.022;2023-05-10T11:32:36;2.40;;;1.47;;
5821;SDS011;2937;48.562;8.022;2023-05-10T11:37:30;1.97;;;1.43;;
5821;SDS011;2937;48.562;8.022;2023-05-10T11:42:25;3.53;;;1.50;;
5821;SDS011;2937;48.562;8.022;2023-05-10T11:47:19;2.57;;;1.50;;
5821;SDS011;2937;48.562;8.022;2023-05-10T11:52:12;2.40;;;1.47;;
5821;SDS011;2937;48.562;8.022;2023-05-10T11:57:07;2.53;;;1.20;;
5821;SDS011;2937;48.562;8.022;2023-05-10T12:02:00;2.80;;;1.37;;
5821;SDS011;2937;48.562;8.022;2023-05-10T12:06:52;1.30;;;1.20;;
5821;SDS011;2937;48.562;8.022;2023-05-10T12:11:45;2.67;;;1.30;;
5821;SDS011;2937;48.562;8.022;2023-05-10T12:16:39;1.63;;;1.20;;
5821;SDS011;2937;48.562;8.022;2023-05-10T12:21:32;3.17;;;1.30;;
5821;SDS011;2937;48.562;8.022;2023-05-10T12:26:25;2.17;;;1.10;;
5821;SDS011;2937;48.562;8.022;2023-05-10T12:31:18;2.10;;;1.33;;
5821;SDS011;2937;48.562;8.022;2023-05-10T12:36:13;1.30;;;1.20;;
5821;SDS011;2937;48.562;8.022;2023-05-10T12:41:06;2.30;;;1.30;;
5821;SDS011;2937;48.562;8.022;2023-05-10T12:46:04;1.40;;;1.27;;
5821;SDS011;2937;48.562;8.022;2023-05-10T12:50:56;2.07;;;1.13;;
5821;SDS011;2937;48.562;8.022;2023-05-10T12:55:50;2.23;;;1.10;;
5821;SDS011;2937;48.562;8.022;2023-05-10T13:00:43;1.63;;;1.20;;
5821;SDS011;2937;48.562;8.022;2023-05-10T13:05:36;1.20;;;1.10;;
5821;SDS011;2937;48.562;8.022;2023-05-10T13:10:29;2.90;;;1.20;;
5821;SDS011;2937;48.562;8.022;2023-05-10T13:15:23;1.93;;;1.10;;
5821;SDS011;2937;48.562;8.022;2023-05-10T13:20:15;2.53;;;1.53;;
5821;SDS011;2937;48.562;8.022;2023-05-10T13:25:09;2.40;;;1.33;;
5821;SDS011;2937;48.562;8.022;2023-05-10T13:30:02;3.03;;;1.20;;
5821;SDS011;2937;48.562;8.022;2023-05-10T13:34:56;2.50;;;1.13;;
5821;SDS011;2937;48.562;8.022;2023-05-10T13:39:49;2.63;;;1.20;;
5821;SDS011;2937;48.562;8.022;2023-05-10T13:44:42;3.10;;;1.30;;
5821;SDS011;2937;48.562;8.022;2023-05-10T13:49:34;1.23;;;1.00;;
5821;SDS011;2937;48.562;8.022;2023-05-10T13:54:28;1.87;;;1.27;;
5821;SDS011;2937;48.562;8.022;2023-05-10T13:59:22;2.83;;;1.20;;
5821;SDS011;2937;48.562;8.022;2023-05-10T14:04:15;3.63;;;1.40;;
5821;SDS011;2937;48.562;8.022;2023-05-10T14:09:08;2.17;;;1.10;;
5821;SDS011;2937;48.562;8.022;2023-05-10T14:14:02;1.40;;;1.10;;
5821;SDS011;2937;48.562;8.022;2023-05-10T14:18:54;1.20;;;1.00;;
5821;SDS011;2937;48.562;8.022;2023-05-10T14:23:47;1.30;;;1.20;;
5821;SDS011;2937;48.562;8.022;2023-05-10T14:28:40;1.50;;;1.00;;
5821;SDS011;2937;48.562;8.022;2023-05-10T14:33:34;1.10;;;1.00;;
5821;SDS011;2937;48.562;8.022;2023-05-10T14:38:27;1.63;;;0.93;;
5821;SDS011;2937;48.562;8.022;2023-05-10T14:43:19;1.03;;;0.93;;
5821;SDS011;2937;48.562;8.022;2023-05-10T14:48:12;3.10;;;1.00;;
5821;SDS011;2937;48.562;8.022;2023-05-10T14:53:08;6.50;;;1.10;;
5821;SDS011;2937;48.562;8.022;2023-05-10T14:58:01;1.53;;;1.10;;
5821;SDS011;2937;48.562;8.022;2023-05-10T15:02:54;3.30;;;1.37;;
5821;SDS011;2937;48.562;8.022;2023-05-10T15:07:47;1.30;;;1.10;;
5821;SDS011;2937;48.562;8.022;2023-05-10T15:12:41;2.50;;;1.07;;
5821;SDS011;2937;48.562;8.022;2023-05-10T15:17:34;2.27;;;1.10;;
5821;SDS011;2937;48.562;8.022;2023-05-10T15:22:27;2.10;;;1.27;;
5821;SDS011;2937;48.562;8.022;2023-05-10T15:27:21;3.20;;;1.60;;
5821;SDS011;2937;48.562;8.022;2023-05-10T15:32:15;1.97;;;1.80;;
5821;SDS011;2937;48.562;8.022;2023-05-10T15:37:08;1.90;;;1.50;;
5821;SDS011;2937;48.562;8.022;2023-05-10T15:42:01;1.40;;;1.20;;
5821;SDS011;2937;48.562;8.022;2023-05-10T15:46:54;1.63;;;1.53;;
5821;SDS011;2937;48.562;8.022;2023-05-10T15:51:48;3.60;;;1.67;;
5821;SDS011;2937;48.562;8.022;2023-05-10T15:56:41;1.33;;;1.20;;
5821;SDS011;2937;48.562;8.022;2023-05-10T16:01:34;1.43;;;1.20;;
5821;SDS011;2937;48.562;8.022;2023-05-10T16:06:26;1.53;;;1.43;;
5821;SDS011;2937;48.562;8.022;2023-05-10T16:11:31;1.87;;;1.43;;
5821;SDS011;2937;48.562;8.022;2023-05-10T16:16:38;2.50;;;1.60;;
5821;SDS011;2937;48.562;8.022;2023-05-10T16:21:31;2.50;;;1.50;;
5821;SDS011;2937;48.562;8.022;2023-05-10T16:26:24;1.67;;;1.57;;
5821;SDS011;2937;48.562;8.022;2023-05-10T16:31:19;2.40;;;1.53;;
5821;SDS011;2937;48.562;8.022;2023-05-10T16:36:11;3.27;;;1.70;;
5821;SDS011;2937;48.562;8.022;2023-05-10T16:41:04;1.70;;;1.60;;
5821;SDS011;2937;48.562;8.022;2023-05-10T16:45:57;1.87;;;1.53;;
5821;SDS011;2937;48.562;8.022;2023-05-10T16:50:51;2.73;;;1.40;;
5821;SDS011;2937;48.562;8.022;2023-05-10T16:55:44;5.73;;;1.40;;
5821;SDS011;2937;48.562;8.022;2023-05-10T17:00:36;3.43;;;1.27;;
5821;SDS011;2937;48.562;8.022;2023-05-10T17:05:29;1.83;;;1.50;;
5821;SDS011;2937;48.562;8.022;2023-05-10T17:10:23;1.87;;;1.60;;
5821;SDS011;2937;48.562;8.022;2023-05-10T17:15:15;3.50;;;1.43;;
5821;SDS011;2937;48.562;8.022;2023-05-10T17:20:10;1.80;;;1.20;;
5821;SDS011;2937;48.562;8.022;2023-05-10T17:25:02;2.07;;;1.40;;
5821;SDS011;2937;48.562;8.022;2023-05-10T17:29:56;2.33;;;1.47;;
5821;SDS011;2937;48.562;8.022;2023-05-10T17:34:49;2.00;;;1.80;;
5821;SDS011;2937;48.562;8.022;2023-05-10T17:39:42;2.33;;;1.50;;
5821;SDS011;2937;48.562;8.022;2023-05-10T17:44:35;1.70;;;1.33;;
5821;SDS011;2937;48.562;8.022;2023-05-10T17:49:29;3.10;;;1.50;;
5821;SDS011;2937;48.562;8.022;2023-05-10T17:54:21;2.47;;;2.10;;
5821;SDS011;2937;48.562;8.022;2023-05-10T17:59:14;3.40;;;1.80;;
5821;SDS011;2937;48.562;8.022;2023-05-10T18:04:07;1.83;;;1.60;;
5821;SDS011;2937;48.562;8.022;2023-05-10T18:09:01;3.20;;;2.10;;
5821;SDS011;2937;48.562;8.022;2023-05-10T18:13:54;2.83;;;2.60;;
5821;SDS011;2937;48.562;8.022;2023-05-10T18:18:47;2.30;;;2.10;;
5821;SDS011;2937;48.562;8.022;2023-05-10T18:23:40;5.10;;;3.60;;
5821;SDS011;2937;48.562;8.022;2023-05-10T18:28:34;6.73;;;4.87;;
5821;SDS011;2937;48.562;8.022;2023-05-10T18:33:27;3.37;;;3.07;;
5821;SDS011;2937;48.562;8.022;2023-05-10T18:38:20;5.73;;;3.17;;
5821;SDS011;2937;48.562;8.022;2023-05-10T18:43:13;3.43;;;3.13;;
5821;SDS011;2937;48.562;8.022;2023-05-10T18:48:07;5.97;;;3.80;;
5821;SDS011;2937;48.562;8.022;2023-05-10T18:52:59;5.43;;;3.90;;
5821;SDS011;2937;48.562;8.022;2023-05-10T18:57:52;3.70;;;2.90;;
5821;SDS011;2937;48.562;8.022;2023-05-10T19:02:45;7.27;;;5.47;;
5821;SDS011;2937;48.562;8.022;2023-05-10T19:07:39;10.67;;;7.63;;
5821;SDS011;2937;48.562;8.022;2023-05-10T19:12:34;6.47;;;5.37;;
5821;SDS011;2937;48.562;8.022;2023-05-10T19:17:27;3.20;;;2.90;;
5821;SDS011;2937;48.562;8.022;2023-05-10T19:22:21;2.10;;;1.90;;
5821;SDS011;2937;48.562;8.022;2023-05-10T19:27:35;4.40;;;2.20;;
5821;SDS011;2937;48.562;8.022;2023-05-10T19:32:27;3.97;;;2.13;;
5821;SDS011;2937;48.562;8.022;2023-05-10T19:37:20;3.90;;;2.20;;
5821;SDS011;2937;48.562;8.022;2023-05-10T19:42:13;4.03;;;1.90;;
5821;SDS011;2937;48.562;8.022;2023-05-10T19:47:07;5.17;;;2.50;;
5821;SDS011;2937;48.562;8.022;2023-05-10T19:52:00;4.87;;;2.40;;
5821;SDS011;2937;48.562;8.022;2023-05-10T19:56:53;2.43;;;2.20;;
5821;SDS011;2937;48.562;8.022;2023-05-10T20:01:46;6.37;;;5.40;;
5821;SDS011;2937;48.562;8.022;2023-05-10T20:06:41;5.17;;;4.67;;
5821;SDS011;2937;48.562;8.022;2023-05-10T20:11:33;7.13;;;4.60;;
5821;SDS011;2937;48.562;8.022;2023-05-10T20:16:26;6.23;;;3.03;;
5821;SDS011;2937;48.562;8.022;2023-05-10T20:21:19;3.73;;;3.10;;
5821;SDS011;2937;48.562;8.022;2023-05-10T20:26:13;5.90;;;4.17;;
5821;SDS011;2937;48.562;8.022;2023-05-10T20:31:06;4.90;;;4.00;;
5821;SDS011;2937;48.562;8.022;2023-05-10T20:36:00;4.70;;;4.30;;
5821;SDS011;2937;48.562;8.022;2023-05-10T20:40:52;8.63;;;7.50;;
5821;SDS011;2937;48.562;8.022;2023-05-10T20:45:47;9.53;;;7.40;;
5821;SDS011;2937;48.562;8.022;2023-05-10T20:50:40;6.60;;;4.90;;
5821;SDS011;2937;48.562;8.022;2023-05-10T20:55:32;3.70;;;2.87;;
5821;SDS011;2937;48.562;8.022;2023-05-10T21:00:25;3.40;;;2.20;;
5821;SDS011;2937;48.562;8.022;2023-05-10T21:05:19;6.77;;;2.30;;
5821;SDS011;2937;48.562;8.022;2023-05-10T21:10:12;8.50;;;7.60;;
5821;SDS011;2937;48.562;8.022;2023-05-10T21:15:05;6.83;;;6.13;;
5821;SDS011;2937;48.562;8.022;2023-05-10T21:19:57;5.10;;;4.60;;
5821;SDS011;2937;48.562;8.022;2023-05-10T21:24:52;9.20;;;7.17;;
5821;SDS011;2937;48.562;8.022;2023-05-10T21:29:44;17.73;;;13.70;;
5821;SDS011;2937;48.562;8.022;2023-05-10T21:34:37;19.53;;;15.70;;
5821;SDS011;2937;48.562;8.022;2023-05-10T21:39:30;10.67;;;7.60;;
5821;SDS011;2937;48.562;8.022;2023-05-10T21:44:24;6.53;;;4.50;;
5821;SDS011;2937;48.562;8.022;2023-05-10T21:49:16;20.40;;;18.03;;
5821;SDS011;2937;48.562;8.022;2023-05-10T21:54:09;15.97;;;13.90;;
5821;SDS011;2937;48.562;8.022;2023-05-10T21:59:02;14.23;;;11.87;;
5821;SDS011;2937;48.562;8.022;2023-05-10T22:03:56;15.83;;;10.10;;
5821;SDS011;2937;48.562;8.022;2023-05-10T22:08:48;17.77;;;14.93;;
5821;SDS011;2937;48.562;8.022;2023-05-10T22:13:41;12.80;;;10.43;;
5821;SDS011;2937;48.562;8.022;2023-05-10T22:18:35;20.93;;;14.13;;
5821;SDS011;2937;48.562;8.022;2023-05-10T22:23:29;13.73;;;11.67;;
5821;SDS011;2937;48.562;8.022;2023-05-10T22:28:21;18.97;;;15.43;;
5821;SDS011;2937;48.562;8.022;2023-05-10T22:33:14;15.80;;;12.50;;
5821;SDS011;2937;48.562;8.022;2023-05-10T22:38:07;13.13;;;11.50;;
5821;SDS011;2937;48.562;8.022;2023-05-10T22:43:01;14.70;;;12.50;;
5821;SDS011;2937;48.562;8.022;2023-05-10T22:47:53;13.60;;;10.97;;
5821;SDS011;2937;48.562;8.022;2023-05-10T22:52:46;5.73;;;4.67;;
5821;SDS011;2937;48.562;8.022;2023-05-10T22:57:39;5.87;;;3.00;;
5821;SDS011;2937;48.562;8.022;2023-05-10T23:02:33;3.77;;;3.10;;
5821;SDS011;2937;48.562;8.022;2023-05-10T23:07:26;2.60;;;2.30;;
5821;SDS011;2937;48.562;8.022;2023-05-10T23:12:18;3.30;;;2.13;;
5821;SDS011;2937;48.562;8.022;2023-05-10T23:17:11;3.67;;;2.50;;
5821;SDS011;2937;48.562;8.022;2023-05-10T23:22:05;2.70;;;2.23;;
5821;SDS011;2937;48.562;8.022;2023-05-10T23:26:58;4.60;;;2.43;;
5821;SDS011;2937;48.562;8.022;2023-05-10T23:31:50;2.70;;;2.20;;
5821;SDS011;2937;48.562;8.022;2023-05-10T23:36:43;5.73;;;2.40;;
5821;SDS011;2937;48.562;8.022;2023-05-10T23:41:37;2.77;;;2.50;;
5821;SDS011;2937;48.562;8.022;2023-05-10T23:46:30;2.37;;;2.17;;
5821;SDS011;2937;48.562;8.022;2023-05-10T23:51:22;3.60;;;2.40;;
5821;SDS011;2937;48.562;8.022;2023-05-10T23:56:15;5.83;;;2.50;;
